sensor_id;sensor_type;location;lat;lon;timestamp;P1;durP1;ratioP1;P2;durP2;ratioP2
6825;SDS011;3451;52.476;13.316;2023-03-12T00:01:26;4.70;;;1.73;;
6825;SDS011;3451;52.476;13.316;2023-03-12T00:03:55;2.83;;;1.80;;
6825;SDS011;3451;52.476;13.316;2023-03-12T00:06:22;5.33;;;2.00;;
6825;SDS011;3451;52.476;13.316;2023-03-12T00:08:48;6.47;;;1.93;;
6825;SDS011;3451;52.476;13.316;2023-03-12T00:11:16;4.43;;;1.93;;
6825;SDS011;3451;52.476;13.316;2023-03-12T00:13:42;3.57;;;1.87;;
6825;SDS011;3451;52.476;13.316;2023-03-12T00:16:13;5.23;;;1.80;;
6825;SDS011;3451;52.476;13.316;2023-03-12T00:18:41;4.27;;;1.80;;
6825;SDS011;3451;52.476;13.316;2023-03-12T00:21:08;9.20;;;2.20;;
6825;SDS011;3451;52.476;13.316;2023-03-12T00:23:34;4.70;;;1.90;;
6825;SDS011;3451;52.476;13.316;2023-03-12T00:26:01;6.47;;;2.23;;
6825;SDS011;3451;52.476;13.316;2023-03-12T00:28:28;5.53;;;2.20;;
6825;SDS011;3451;52.476;13.316;2023-03-12T00:30:54;6.07;;;2.00;;
6825;SDS011;3451;52.476;13.316;2023-03-12T00:33:24;6.70;;;1.97;;
6825;SDS011;3451;52.476;13.316;2023-03-12T00:35:51;3.97;;;2.00;;
6825;SDS011;3451;52.476;13.316;2023-03-12T00:38:17;3.40;;;1.90;;
6825;SDS011;3451;52.476;13.316;2023-03-12T00:40:43;5.03;;;2.10;;
6825;SDS011;3451;52.476;13.316;2023-03-12T00:43:10;5.33;;;2.00;;
6825;SDS011;3451;52.476;13.316;2023-03-12T00:45:36;6.83;;;1.97;;
6825;SDS011;3451;52.476;13.316;2023-03-12T00:48:02;4.90;;;1.93;;
6825;SDS011;3451;52.476;13.316;2023-03-12T00:50:28;6.87;;;2.13;;
6825;SDS011;3451;52.476;13.316;2023-03-12T00:52:55;6.83;;;2.40;;
6825;SDS011;3451;52.476;13.316;2023-03-12T00:55:21;6.03;;;1.90;;
6825;SDS011;3451;52.476;13.316;2023-03-12T00:57:47;5.27;;;2.03;;
6825;SDS011;3451;52.476;13.316;2023-03-12T01:00:14;3.87;;;2.30;;
6825;SDS011;3451;52.476;13.316;2023-03-12T01:02:40;6.17;;;2.07;;
6825;SDS011;3451;52.476;13.316;2023-03-12T01:05:07;5.37;;;2.10;;
6825;SDS011;3451;52.476;13.316;2023-03-12T01:07:34;6.10;;;2.37;;
6825;SDS011;3451;52.476;13.316;2023-03-12T01:10:00;4.27;;;2.10;;
6825;SDS011;3451;52.476;13.316;2023-03-12T01:12:27;8.33;;;2.27;;
6825;SDS011;3451;52.476;13.316;2023-03-12T01:14:53;5.57;;;2.47;;
6825;SDS011;3451;52.476;13.316;2023-03-12T01:17:19;8.03;;;2.27;;
6825;SDS011;3451;52.476;13.316;2023-03-12T01:19:45;6.03;;;2.10;;
6825;SDS011;3451;52.476;13.316;2023-03-12T01:22:12;3.13;;;1.80;;
6825;SDS011;3451;52.476;13.316;2023-03-12T01:24:38;4.93;;;2.20;;
6825;SDS011;3451;52.476;13.316;2023-03-12T01:27:04;6.43;;;2.13;;
6825;SDS011;3451;52.476;13.316;2023-03-12T01:29:30;5.77;;;2.20;;
6825;SDS011;3451;52.476;13.316;2023-03-12T01:31:57;9.03;;;2.60;;
6825;SDS011;3451;52.476;13.316;2023-03-12T01:34:23;5.10;;;2.00;;
6825;SDS011;3451;52.476;13.316;2023-03-12T01:36:49;5.73;;;1.80;;
6825;SDS011;3451;52.476;13.316;2023-03-12T01:39:16;7.70;;;2.10;;
6825;SDS011;3451;52.476;13.316;2023-03-12T01:41:42;6.27;;;2.10;;
6825;SDS011;3451;52.476;13.316;2023-03-12T01:44:11;3.80;;;2.10;;
6825;SDS011;3451;52.476;13.316;2023-03-12T01:46:39;5.90;;;2.23;;
6825;SDS011;3451;52.476;13.316;2023-03-12T01:51:39;5.60;;;2.10;;
6825;SDS011;3451;52.476;13.316;2023-03-12T01:54:09;5.23;;;2.27;;
6825;SDS011;3451;52.476;13.316;2023-03-12T01:56:36;5.47;;;2.27;;
6825;SDS011;3451;52.476;13.316;2023-03-12T01:59:13;5.63;;;2.30;;
6825;SDS011;3451;52.476;13.316;2023-03-12T02:01:40;6.23;;;2.07;;
6825;SDS011;3451;52.476;13.316;2023-03-12T02:04:07;3.07;;;1.80;;
6825;SDS011;3451;52.476;13.316;2023-03-12T02:06:36;4.77;;;2.60;;
6825;SDS011;3451;52.476;13.316;2023-03-12T02:09:03;4.67;;;2.30;;
6825;SDS011;3451;52.476;13.316;2023-03-12T02:11:30;4.97;;;2.30;;
6825;SDS011;3451;52.476;13.316;2023-03-12T02:13:57;4.83;;;1.97;;
6825;SDS011;3451;52.476;13.316;2023-03-12T02:16:23;8.13;;;2.40;;
6825;SDS011;3451;52.476;13.316;2023-03-12T02:18:49;6.77;;;2.20;;
6825;SDS011;3451;52.476;13.316;2023-03-12T02:24:34;3.87;;;2.00;;
6825;SDS011;3451;52.476;13.316;2023-03-12T02:27:03;6.80;;;2.30;;
6825;SDS011;3451;52.476;13.316;2023-03-12T02:29:31;9.40;;;2.50;;
6825;SDS011;3451;52.476;13.316;2023-03-12T02:31:58;6.03;;;2.20;;
6825;SDS011;3451;52.476;13.316;2023-03-12T02:34:25;3.57;;;1.80;;
6825;SDS011;3451;52.476;13.316;2023-03-12T02:36:52;5.77;;;3.13;;
6825;SDS011;3451;52.476;13.316;2023-03-12T02:39:18;5.77;;;2.10;;
6825;SDS011;3451;52.476;13.316;2023-03-12T02:41:48;9.00;;;2.40;;
6825;SDS011;3451;52.476;13.316;2023-03-12T02:44:19;5.57;;;2.17;;
6825;SDS011;3451;52.476;13.316;2023-03-12T02:46:50;4.07;;;1.90;;
6825;SDS011;3451;52.476;13.316;2023-03-12T02:49:18;4.80;;;2.27;;
6825;SDS011;3451;52.476;13.316;2023-03-12T02:51:45;5.07;;;2.20;;
6825;SDS011;3451;52.476;13.316;2023-03-12T02:54:11;6.53;;;2.20;;
6825;SDS011;3451;52.476;13.316;2023-03-12T02:56:38;5.33;;;2.47;;
6825;SDS011;3451;52.476;13.316;2023-03-12T02:59:04;5.87;;;2.10;;
6825;SDS011;3451;52.476;13.316;2023-03-12T03:01:31;6.23;;;2.60;;
6825;SDS011;3451;52.476;13.316;2023-03-12T03:04:01;6.10;;;2.40;;
6825;SDS011;3451;52.476;13.316;2023-03-12T03:06:28;7.97;;;2.60;;
6825;SDS011;3451;52.476;13.316;2023-03-12T03:08:54;5.27;;;2.17;;
6825;SDS011;3451;52.476;13.316;2023-03-12T03:11:20;4.90;;;2.50;;
6825;SDS011;3451;52.476;13.316;2023-03-12T03:13:50;6.97;;;2.33;;
6825;SDS011;3451;52.476;13.316;2023-03-12T03:16:16;7.37;;;2.53;;
6825;SDS011;3451;52.476;13.316;2023-03-12T03:18:42;4.07;;;2.20;;
6825;SDS011;3451;52.476;13.316;2023-03-12T03:21:09;4.43;;;2.17;;
6825;SDS011;3451;52.476;13.316;2023-03-12T03:23:35;9.10;;;2.80;;
6825;SDS011;3451;52.476;13.316;2023-03-12T03:26:02;5.37;;;2.50;;
6825;SDS011;3451;52.476;13.316;2023-03-12T03:28:29;4.57;;;2.27;;
6825;SDS011;3451;52.476;13.316;2023-03-12T03:30:55;2.33;;;1.87;;
6825;SDS011;3451;52.476;13.316;2023-03-12T03:33:27;5.23;;;2.47;;
6825;SDS011;3451;52.476;13.316;2023-03-12T03:35:54;4.57;;;2.20;;
6825;SDS011;3451;52.476;13.316;2023-03-12T03:38:22;5.97;;;3.33;;
6825;SDS011;3451;52.476;13.316;2023-03-12T03:40:49;4.73;;;2.40;;
6825;SDS011;3451;52.476;13.316;2023-03-12T03:43:15;3.73;;;2.07;;
6825;SDS011;3451;52.476;13.316;2023-03-12T03:45:41;4.10;;;2.03;;
6825;SDS011;3451;52.476;13.316;2023-03-12T03:48:10;6.70;;;2.50;;
6825;SDS011;3451;52.476;13.316;2023-03-12T03:50:37;4.73;;;2.30;;
6825;SDS011;3451;52.476;13.316;2023-03-12T03:53:04;7.17;;;2.30;;
6825;SDS011;3451;52.476;13.316;2023-03-12T03:55:30;4.70;;;2.30;;
6825;SDS011;3451;52.476;13.316;2023-03-12T03:57:57;6.03;;;2.30;;
6825;SDS011;3451;52.476;13.316;2023-03-12T04:00:23;6.87;;;2.60;;
6825;SDS011;3451;52.476;13.316;2023-03-12T04:02:49;7.10;;;2.77;;
6825;SDS011;3451;52.476;13.316;2023-03-12T04:05:15;5.93;;;2.17;;
6825;SDS011;3451;52.476;13.316;2023-03-12T04:07:44;6.23;;;2.87;;
6825;SDS011;3451;52.476;13.316;2023-03-12T04:10:10;5.33;;;3.40;;
6825;SDS011;3451;52.476;13.316;2023-03-12T04:12:37;7.53;;;2.73;;
6825;SDS011;3451;52.476;13.316;2023-03-12T04:15:04;4.73;;;2.93;;
6825;SDS011;3451;52.476;13.316;2023-03-12T04:17:30;6.17;;;2.70;;
6825;SDS011;3451;52.476;13.316;2023-03-12T04:19:56;5.27;;;2.93;;
6825;SDS011;3451;52.476;13.316;2023-03-12T04:22:23;6.90;;;3.07;;
6825;SDS011;3451;52.476;13.316;2023-03-12T04:24:49;5.07;;;3.07;;
6825;SDS011;3451;52.476;13.316;2023-03-12T04:27:15;6.53;;;3.03;;
6825;SDS011;3451;52.476;13.316;2023-03-12T04:29:41;10.03;;;3.73;;
6825;SDS011;3451;52.476;13.316;2023-03-12T04:32:08;7.83;;;3.40;;
6825;SDS011;3451;52.476;13.316;2023-03-12T04:34:34;5.60;;;3.47;;
6825;SDS011;3451;52.476;13.316;2023-03-12T04:37:00;6.17;;;3.80;;
6825;SDS011;3451;52.476;13.316;2023-03-12T04:39:27;9.03;;;3.47;;
6825;SDS011;3451;52.476;13.316;2023-03-12T04:41:54;5.20;;;3.27;;
6825;SDS011;3451;52.476;13.316;2023-03-12T04:44:20;8.37;;;3.90;;
6825;SDS011;3451;52.476;13.316;2023-03-12T04:46:46;10.17;;;4.33;;
6825;SDS011;3451;52.476;13.316;2023-03-12T04:49:12;8.37;;;3.87;;
6825;SDS011;3451;52.476;13.316;2023-03-12T04:51:39;9.67;;;4.37;;
6825;SDS011;3451;52.476;13.316;2023-03-12T04:54:05;9.77;;;4.57;;
6825;SDS011;3451;52.476;13.316;2023-03-12T04:56:31;8.47;;;4.00;;
6825;SDS011;3451;52.476;13.316;2023-03-12T04:58:58;7.63;;;3.93;;
6825;SDS011;3451;52.476;13.316;2023-03-12T05:01:25;6.50;;;3.80;;
6825;SDS011;3451;52.476;13.316;2023-03-12T05:03:52;7.53;;;3.63;;
6825;SDS011;3451;52.476;13.316;2023-03-12T05:06:19;7.77;;;3.57;;
6825;SDS011;3451;52.476;13.316;2023-03-12T05:08:45;8.30;;;3.80;;
6825;SDS011;3451;52.476;13.316;2023-03-12T05:11:12;7.13;;;3.60;;
6825;SDS011;3451;52.476;13.316;2023-03-12T05:13:38;5.93;;;3.80;;
6825;SDS011;3451;52.476;13.316;2023-03-12T05:16:05;9.67;;;3.93;;
6825;SDS011;3451;52.476;13.316;2023-03-12T05:18:31;6.50;;;3.70;;
6825;SDS011;3451;52.476;13.316;2023-03-12T05:21:02;5.93;;;3.30;;
6825;SDS011;3451;52.476;13.316;2023-03-12T05:23:29;7.80;;;3.77;;
6825;SDS011;3451;52.476;13.316;2023-03-12T05:25:55;5.97;;;3.40;;
6825;SDS011;3451;52.476;13.316;2023-03-12T05:28:22;7.03;;;3.50;;
6825;SDS011;3451;52.476;13.316;2023-03-12T05:30:53;6.50;;;3.40;;
6825;SDS011;3451;52.476;13.316;2023-03-12T05:33:20;9.87;;;3.30;;
6825;SDS011;3451;52.476;13.316;2023-03-12T05:35:46;9.77;;;3.30;;
6825;SDS011;3451;52.476;13.316;2023-03-12T05:38:12;7.33;;;3.50;;
6825;SDS011;3451;52.476;13.316;2023-03-12T05:40:39;5.30;;;3.27;;
6825;SDS011;3451;52.476;13.316;2023-03-12T05:43:05;7.90;;;4.13;;
6825;SDS011;3451;52.476;13.316;2023-03-12T05:45:31;4.27;;;2.90;;
6825;SDS011;3451;52.476;13.316;2023-03-12T05:47:58;8.37;;;3.03;;
6825;SDS011;3451;52.476;13.316;2023-03-12T05:50:24;4.83;;;3.00;;
6825;SDS011;3451;52.476;13.316;2023-03-12T05:52:51;6.03;;;3.13;;
6825;SDS011;3451;52.476;13.316;2023-03-12T05:55:17;8.90;;;3.30;;
6825;SDS011;3451;52.476;13.316;2023-03-12T05:57:43;5.30;;;3.07;;
6825;SDS011;3451;52.476;13.316;2023-03-12T06:00:11;7.20;;;2.97;;
6825;SDS011;3451;52.476;13.316;2023-03-12T06:02:38;4.00;;;2.77;;
6825;SDS011;3451;52.476;13.316;2023-03-12T06:05:04;6.73;;;3.50;;
6825;SDS011;3451;52.476;13.316;2023-03-12T06:07:30;6.30;;;2.90;;
6825;SDS011;3451;52.476;13.316;2023-03-12T06:09:57;5.70;;;3.30;;
6825;SDS011;3451;52.476;13.316;2023-03-12T06:12:24;8.67;;;3.33;;
6825;SDS011;3451;52.476;13.316;2023-03-12T06:14:51;7.20;;;2.93;;
6825;SDS011;3451;52.476;13.316;2023-03-12T06:17:17;4.63;;;3.30;;
6825;SDS011;3451;52.476;13.316;2023-03-12T06:19:43;5.97;;;3.20;;
6825;SDS011;3451;52.476;13.316;2023-03-12T06:22:09;5.77;;;2.93;;
6825;SDS011;3451;52.476;13.316;2023-03-12T06:24:36;5.70;;;3.03;;
6825;SDS011;3451;52.476;13.316;2023-03-12T06:27:02;4.60;;;2.70;;
6825;SDS011;3451;52.476;13.316;2023-03-12T06:29:28;5.90;;;3.37;;
6825;SDS011;3451;52.476;13.316;2023-03-12T06:31:54;4.73;;;2.80;;
6825;SDS011;3451;52.476;13.316;2023-03-12T06:34:21;6.07;;;2.67;;
6825;SDS011;3451;52.476;13.316;2023-03-12T06:36:47;5.57;;;2.83;;
6825;SDS011;3451;52.476;13.316;2023-03-12T06:39:14;5.73;;;2.50;;
6825;SDS011;3451;52.476;13.316;2023-03-12T06:41:40;6.57;;;2.90;;
6825;SDS011;3451;52.476;13.316;2023-03-12T06:44:06;5.60;;;2.90;;
6825;SDS011;3451;52.476;13.316;2023-03-12T06:46:33;5.27;;;2.87;;
6825;SDS011;3451;52.476;13.316;2023-03-12T06:48:59;8.73;;;3.50;;
6825;SDS011;3451;52.476;13.316;2023-03-12T06:51:25;5.17;;;3.20;;
6825;SDS011;3451;52.476;13.316;2023-03-12T06:53:52;5.40;;;2.70;;
6825;SDS011;3451;52.476;13.316;2023-03-12T06:56:18;6.63;;;3.17;;
6825;SDS011;3451;52.476;13.316;2023-03-12T06:58:44;6.07;;;3.40;;
6825;SDS011;3451;52.476;13.316;2023-03-12T07:01:10;4.53;;;2.80;;
6825;SDS011;3451;52.476;13.316;2023-03-12T07:03:37;6.63;;;3.07;;
6825;SDS011;3451;52.476;13.316;2023-03-12T07:06:03;5.53;;;2.87;;
6825;SDS011;3451;52.476;13.316;2023-03-12T07:08:29;5.03;;;2.70;;
6825;SDS011;3451;52.476;13.316;2023-03-12T07:10:56;10.13;;;3.03;;
6825;SDS011;3451;52.476;13.316;2023-03-12T07:13:26;5.87;;;2.53;;
6825;SDS011;3451;52.476;13.316;2023-03-12T07:15:52;5.13;;;2.83;;
6825;SDS011;3451;52.476;13.316;2023-03-12T07:18:19;7.87;;;3.30;;
6825;SDS011;3451;52.476;13.316;2023-03-12T07:20:45;5.77;;;2.90;;
6825;SDS011;3451;52.476;13.316;2023-03-12T07:23:12;7.40;;;3.30;;
6825;SDS011;3451;52.476;13.316;2023-03-12T07:25:39;8.30;;;3.10;;
6825;SDS011;3451;52.476;13.316;2023-03-12T07:28:07;5.47;;;2.80;;
6825;SDS011;3451;52.476;13.316;2023-03-12T07:30:33;7.73;;;2.97;;
6825;SDS011;3451;52.476;13.316;2023-03-12T07:33:00;7.07;;;3.20;;
6825;SDS011;3451;52.476;13.316;2023-03-12T07:35:26;6.93;;;3.20;;
6825;SDS011;3451;52.476;13.316;2023-03-12T07:37:53;4.83;;;2.57;;
6825;SDS011;3451;52.476;13.316;2023-03-12T07:40:19;7.00;;;2.80;;
6825;SDS011;3451;52.476;13.316;2023-03-12T07:42:46;7.27;;;2.70;;
6825;SDS011;3451;52.476;13.316;2023-03-12T07:45:13;7.87;;;2.80;;
6825;SDS011;3451;52.476;13.316;2023-03-12T07:47:39;5.37;;;3.03;;
6825;SDS011;3451;52.476;13.316;2023-03-12T07:50:05;4.00;;;2.90;;
6825;SDS011;3451;52.476;13.316;2023-03-12T07:52:32;6.00;;;3.13;;
6825;SDS011;3451;52.476;13.316;2023-03-12T07:54:58;6.63;;;3.27;;
6825;SDS011;3451;52.476;13.316;2023-03-12T07:57:24;9.20;;;3.20;;
6825;SDS011;3451;52.476;13.316;2023-03-12T07:59:51;5.93;;;2.70;;
6825;SDS011;3451;52.476;13.316;2023-03-12T08:02:17;7.33;;;3.13;;
6825;SDS011;3451;52.476;13.316;2023-03-12T08:04:44;10.53;;;3.17;;
6825;SDS011;3451;52.476;13.316;2023-03-12T08:07:10;8.87;;;3.00;;
6825;SDS011;3451;52.476;13.316;2023-03-12T08:09:37;5.40;;;2.97;;
6825;SDS011;3451;52.476;13.316;2023-03-12T08:12:07;7.37;;;3.40;;
6825;SDS011;3451;52.476;13.316;2023-03-12T08:14:33;6.30;;;2.90;;
6825;SDS011;3451;52.476;13.316;2023-03-12T08:17:00;5.27;;;2.83;;
6825;SDS011;3451;52.476;13.316;2023-03-12T08:19:26;10.20;;;3.00;;
6825;SDS011;3451;52.476;13.316;2023-03-12T08:21:53;6.10;;;2.67;;
6825;SDS011;3451;52.476;13.316;2023-03-12T08:24:19;12.50;;;2.83;;
6825;SDS011;3451;52.476;13.316;2023-03-12T08:26:46;4.27;;;2.33;;
6825;SDS011;3451;52.476;13.316;2023-03-12T08:29:13;7.60;;;2.67;;
6825;SDS011;3451;52.476;13.316;2023-03-12T08:31:39;9.53;;;3.10;;
6825;SDS011;3451;52.476;13.316;2023-03-12T08:34:26;6.40;;;3.00;;
6825;SDS011;3451;52.476;13.316;2023-03-12T08:36:52;4.20;;;2.53;;
6825;SDS011;3451;52.476;13.316;2023-03-12T08:39:18;9.50;;;2.67;;
6825;SDS011;3451;52.476;13.316;2023-03-12T08:41:44;4.37;;;2.63;;
6825;SDS011;3451;52.476;13.316;2023-03-12T08:44:11;3.70;;;2.33;;
6825;SDS011;3451;52.476;13.316;2023-03-12T08:46:37;10.10;;;2.47;;
6825;SDS011;3451;52.476;13.316;2023-03-12T08:49:03;5.97;;;2.10;;
6825;SDS011;3451;52.476;13.316;2023-03-12T08:51:29;4.00;;;2.20;;
6825;SDS011;3451;52.476;13.316;2023-03-12T08:53:56;3.63;;;2.17;;
6825;SDS011;3451;52.476;13.316;2023-03-12T08:56:22;4.03;;;2.20;;
6825;SDS011;3451;52.476;13.316;2023-03-12T08:58:48;4.17;;;2.40;;
6825;SDS011;3451;52.476;13.316;2023-03-12T09:01:14;5.73;;;2.00;;
6825;SDS011;3451;52.476;13.316;2023-03-12T09:03:41;5.57;;;2.20;;
6825;SDS011;3451;52.476;13.316;2023-03-12T09:06:08;3.10;;;1.90;;
6825;SDS011;3451;52.476;13.316;2023-03-12T09:08:38;9.60;;;2.47;;
6825;SDS011;3451;52.476;13.316;2023-03-12T09:11:05;6.40;;;2.27;;
6825;SDS011;3451;52.476;13.316;2023-03-12T09:13:33;4.83;;;2.10;;
6825;SDS011;3451;52.476;13.316;2023-03-12T09:16:19;8.27;;;2.50;;
6825;SDS011;3451;52.476;13.316;2023-03-12T09:18:45;8.37;;;2.17;;
6825;SDS011;3451;52.476;13.316;2023-03-12T09:21:12;4.10;;;1.60;;
6825;SDS011;3451;52.476;13.316;2023-03-12T09:23:38;7.50;;;1.80;;
6825;SDS011;3451;52.476;13.316;2023-03-12T09:26:08;5.07;;;1.50;;
6825;SDS011;3451;52.476;13.316;2023-03-12T09:28:34;3.47;;;1.40;;
6825;SDS011;3451;52.476;13.316;2023-03-12T09:31:01;4.93;;;1.63;;
6825;SDS011;3451;52.476;13.316;2023-03-12T09:33:27;7.77;;;1.90;;
6825;SDS011;3451;52.476;13.316;2023-03-12T09:35:55;9.10;;;1.60;;
6825;SDS011;3451;52.476;13.316;2023-03-12T09:38:21;2.73;;;1.23;;
6825;SDS011;3451;52.476;13.316;2023-03-12T09:40:47;3.30;;;0.97;;
6825;SDS011;3451;52.476;13.316;2023-03-12T09:43:20;5.60;;;1.67;;
6825;SDS011;3451;52.476;13.316;2023-03-12T09:45:47;3.43;;;1.40;;
6825;SDS011;3451;52.476;13.316;2023-03-12T09:48:18;3.50;;;1.60;;
6825;SDS011;3451;52.476;13.316;2023-03-12T09:50:47;7.30;;;1.97;;
6825;SDS011;3451;52.476;13.316;2023-03-12T09:53:34;3.73;;;1.83;;
6825;SDS011;3451;52.476;13.316;2023-03-12T09:56:03;2.73;;;1.57;;
6825;SDS011;3451;52.476;13.316;2023-03-12T09:58:35;4.77;;;1.70;;
6825;SDS011;3451;52.476;13.316;2023-03-12T10:03:55;3.13;;;1.40;;
6825;SDS011;3451;52.476;13.316;2023-03-12T10:06:32;4.80;;;1.80;;
6825;SDS011;3451;52.476;13.316;2023-03-12T10:12:03;4.57;;;1.93;;
6825;SDS011;3451;52.476;13.316;2023-03-12T10:14:34;3.40;;;1.60;;
6825;SDS011;3451;52.476;13.316;2023-03-12T10:17:10;4.40;;;2.27;;
6825;SDS011;3451;52.476;13.316;2023-03-12T10:19:59;6.63;;;2.40;;
6825;SDS011;3451;52.476;13.316;2023-03-12T10:22:51;4.53;;;1.93;;
6825;SDS011;3451;52.476;13.316;2023-03-12T10:25:26;2.60;;;1.33;;
6825;SDS011;3451;52.476;13.316;2023-03-12T10:27:54;4.43;;;1.77;;
6825;SDS011;3451;52.476;13.316;2023-03-12T10:30:24;2.57;;;1.53;;
6825;SDS011;3451;52.476;13.316;2023-03-12T10:32:58;3.83;;;1.30;;
6825;SDS011;3451;52.476;13.316;2023-03-12T10:35:27;4.70;;;1.70;;
6825;SDS011;3451;52.476;13.316;2023-03-12T10:37:59;3.07;;;1.40;;
6825;SDS011;3451;52.476;13.316;2023-03-12T10:40:27;3.57;;;1.20;;
6825;SDS011;3451;52.476;13.316;2023-03-12T10:42:53;2.80;;;1.50;;
6825;SDS011;3451;52.476;13.316;2023-03-12T10:45:40;3.33;;;1.50;;
6825;SDS011;3451;52.476;13.316;2023-03-12T10:48:09;7.20;;;1.87;;
6825;SDS011;3451;52.476;13.316;2023-03-12T10:50:37;3.17;;;1.63;;
6825;SDS011;3451;52.476;13.316;2023-03-12T10:53:17;3.03;;;1.30;;
6825;SDS011;3451;52.476;13.316;2023-03-12T10:55:56;4.37;;;1.80;;
6825;SDS011;3451;52.476;13.316;2023-03-12T10:58:23;4.03;;;1.97;;
6825;SDS011;3451;52.476;13.316;2023-03-12T11:00:56;6.07;;;1.60;;
6825;SDS011;3451;52.476;13.316;2023-03-12T11:03:28;4.73;;;1.80;;
6825;SDS011;3451;52.476;13.316;2023-03-12T11:05:55;3.63;;;1.50;;
6825;SDS011;3451;52.476;13.316;2023-03-12T11:08:27;3.83;;;1.67;;
6825;SDS011;3451;52.476;13.316;2023-03-12T11:10:55;3.60;;;2.00;;
6825;SDS011;3451;52.476;13.316;2023-03-12T11:13:32;4.37;;;1.70;;
6825;SDS011;3451;52.476;13.316;2023-03-12T11:15:59;6.77;;;1.97;;
6825;SDS011;3451;52.476;13.316;2023-03-12T11:21:14;7.30;;;1.97;;
6825;SDS011;3451;52.476;13.316;2023-03-12T11:23:40;5.40;;;2.30;;
6825;SDS011;3451;52.476;13.316;2023-03-12T11:26:18;2.80;;;1.93;;
6825;SDS011;3451;52.476;13.316;2023-03-12T11:28:49;3.33;;;1.90;;
6825;SDS011;3451;52.476;13.316;2023-03-12T11:31:18;9.73;;;2.20;;
6825;SDS011;3451;52.476;13.316;2023-03-12T11:33:46;5.53;;;2.40;;
6825;SDS011;3451;52.476;13.316;2023-03-12T11:41:41;4.03;;;2.33;;
6825;SDS011;3451;52.476;13.316;2023-03-12T11:44:24;3.50;;;2.17;;
6825;SDS011;3451;52.476;13.316;2023-03-12T11:46:57;5.33;;;2.63;;
6825;SDS011;3451;52.476;13.316;2023-03-12T11:49:48;3.67;;;2.10;;
6825;SDS011;3451;52.476;13.316;2023-03-12T11:52:20;5.03;;;2.30;;
6825;SDS011;3451;52.476;13.316;2023-03-12T11:57:45;9.53;;;2.40;;
6825;SDS011;3451;52.476;13.316;2023-03-12T12:03:22;5.00;;;2.27;;
6825;SDS011;3451;52.476;13.316;2023-03-12T12:10:47;5.07;;;2.10;;
6825;SDS011;3451;52.476;13.316;2023-03-12T12:13:22;4.37;;;2.00;;
6825;SDS011;3451;52.476;13.316;2023-03-12T12:18:24;5.67;;;2.30;;
6825;SDS011;3451;52.476;13.316;2023-03-12T12:20:57;5.37;;;2.30;;
6825;SDS011;3451;52.476;13.316;2023-03-12T12:26:03;6.53;;;2.47;;
6825;SDS011;3451;52.476;13.316;2023-03-12T12:31:25;4.73;;;2.57;;
6825;SDS011;3451;52.476;13.316;2023-03-12T12:34:16;4.73;;;2.73;;
6825;SDS011;3451;52.476;13.316;2023-03-12T12:36:47;4.87;;;2.43;;
6825;SDS011;3451;52.476;13.316;2023-03-12T12:39:34;5.27;;;2.40;;
6825;SDS011;3451;52.476;13.316;2023-03-12T12:42:03;3.50;;;2.40;;
6825;SDS011;3451;52.476;13.316;2023-03-12T12:44:45;5.17;;;2.00;;
6825;SDS011;3451;52.476;13.316;2023-03-12T12:47:14;6.27;;;2.83;;
6825;SDS011;3451;52.476;13.316;2023-03-12T12:49:43;6.07;;;2.20;;
6825;SDS011;3451;52.476;13.316;2023-03-12T12:52:19;4.43;;;2.20;;
6825;SDS011;3451;52.476;13.316;2023-03-12T12:54:57;3.70;;;1.90;;
6825;SDS011;3451;52.476;13.316;2023-03-12T12:57:30;4.13;;;2.30;;
6825;SDS011;3451;52.476;13.316;2023-03-12T13:00:02;4.67;;;1.90;;
6825;SDS011;3451;52.476;13.316;2023-03-12T13:02:32;6.23;;;1.93;;
6825;SDS011;3451;52.476;13.316;2023-03-12T13:04:59;4.37;;;2.20;;
6825;SDS011;3451;52.476;13.316;2023-03-12T13:09:54;5.10;;;2.20;;
6825;SDS011;3451;52.476;13.316;2023-03-12T13:12:54;3.77;;;2.10;;
6825;SDS011;3451;52.476;13.316;2023-03-12T13:15:35;5.70;;;2.10;;
6825;SDS011;3451;52.476;13.316;2023-03-12T13:18:02;5.00;;;1.93;;
6825;SDS011;3451;52.476;13.316;2023-03-12T13:20:33;3.73;;;2.20;;
6825;SDS011;3451;52.476;13.316;2023-03-12T13:23:45;3.57;;;1.87;;
6825;SDS011;3451;52.476;13.316;2023-03-12T13:30:58;3.50;;;1.87;;
6825;SDS011;3451;52.476;13.316;2023-03-12T13:33:41;8.70;;;4.23;;
6825;SDS011;3451;52.476;13.316;2023-03-12T13:38:51;3.77;;;2.00;;
6825;SDS011;3451;52.476;13.316;2023-03-12T13:47:35;2.77;;;1.67;;
6825;SDS011;3451;52.476;13.316;2023-03-12T13:49:36;5.90;;;2.10;;
6825;SDS011;3451;52.476;13.316;2023-03-12T13:55:00;3.30;;;1.90;;
6825;SDS011;3451;52.476;13.316;2023-03-12T13:57:33;3.57;;;1.70;;
6825;SDS011;3451;52.476;13.316;2023-03-12T14:00:05;4.77;;;1.80;;
6825;SDS011;3451;52.476;13.316;2023-03-12T14:02:33;4.37;;;1.80;;
6825;SDS011;3451;52.476;13.316;2023-03-12T14:05:04;5.10;;;1.60;;
6825;SDS011;3451;52.476;13.316;2023-03-12T14:07:38;1.73;;;1.17;;
6825;SDS011;3451;52.476;13.316;2023-03-12T14:10:17;5.23;;;1.70;;
6825;SDS011;3451;52.476;13.316;2023-03-12T14:12:58;3.25;;;1.38;;
6825;SDS011;3451;52.476;13.316;2023-03-12T14:18:00;4.07;;;1.30;;
6825;SDS011;3451;52.476;13.316;2023-03-12T14:20:27;1.93;;;1.20;;
6825;SDS011;3451;52.476;13.316;2023-03-12T14:22:57;2.10;;;1.20;;
6825;SDS011;3451;52.476;13.316;2023-03-12T14:25:58;3.73;;;1.40;;
6825;SDS011;3451;52.476;13.316;2023-03-12T14:28:18;3.70;;;1.87;;
6825;SDS011;3451;52.476;13.316;2023-03-12T14:30:55;3.40;;;1.67;;
6825;SDS011;3451;52.476;13.316;2023-03-12T14:33:23;3.27;;;1.40;;
6825;SDS011;3451;52.476;13.316;2023-03-12T14:35:55;2.53;;;1.40;;
6825;SDS011;3451;52.476;13.316;2023-03-12T14:38:32;2.73;;;1.30;;
6825;SDS011;3451;52.476;13.316;2023-03-12T14:41:03;3.57;;;1.57;;
6825;SDS011;3451;52.476;13.316;2023-03-12T14:43:32;2.97;;;1.50;;
6825;SDS011;3451;52.476;13.316;2023-03-12T14:46:00;4.23;;;1.80;;
6825;SDS011;3451;52.476;13.316;2023-03-12T14:48:28;1.87;;;1.10;;
6825;SDS011;3451;52.476;13.316;2023-03-12T14:50:55;6.53;;;1.87;;
6825;SDS011;3451;52.476;13.316;2023-03-12T14:53:24;2.87;;;1.37;;
6825;SDS011;3451;52.476;13.316;2023-03-12T14:55:58;6.30;;;1.90;;
6825;SDS011;3451;52.476;13.316;2023-03-12T14:58:25;3.57;;;1.60;;
6825;SDS011;3451;52.476;13.316;2023-03-12T15:01:04;3.70;;;1.40;;
6825;SDS011;3451;52.476;13.316;2023-03-12T15:03:33;2.27;;;1.40;;
6825;SDS011;3451;52.476;13.316;2023-03-12T15:06:01;3.03;;;1.57;;
6825;SDS011;3451;52.476;13.316;2023-03-12T15:08:28;4.67;;;1.90;;
6825;SDS011;3451;52.476;13.316;2023-03-12T15:10:55;5.03;;;1.60;;
6825;SDS011;3451;52.476;13.316;2023-03-12T15:13:22;4.83;;;1.80;;
6825;SDS011;3451;52.476;13.316;2023-03-12T15:15:51;5.30;;;1.50;;
6825;SDS011;3451;52.476;13.316;2023-03-12T15:18:20;3.70;;;2.03;;
6825;SDS011;3451;52.476;13.316;2023-03-12T15:20:47;6.67;;;1.90;;
6825;SDS011;3451;52.476;13.316;2023-03-12T15:23:14;5.10;;;1.60;;
6825;SDS011;3451;52.476;13.316;2023-03-12T15:25:42;3.23;;;1.70;;
6825;SDS011;3451;52.476;13.316;2023-03-12T15:30:36;3.73;;;1.93;;
6825;SDS011;3451;52.476;13.316;2023-03-12T15:33:04;3.20;;;1.73;;
6825;SDS011;3451;52.476;13.316;2023-03-12T15:35:31;3.73;;;2.00;;
6825;SDS011;3451;52.476;13.316;2023-03-12T15:37:57;5.17;;;2.27;;
6825;SDS011;3451;52.476;13.316;2023-03-12T15:40:25;4.57;;;1.90;;
6825;SDS011;3451;52.476;13.316;2023-03-12T15:42:52;6.13;;;2.23;;
6825;SDS011;3451;52.476;13.316;2023-03-12T15:45:25;3.30;;;2.28;;
6825;SDS011;3451;52.476;13.316;2023-03-12T15:47:53;4.03;;;2.00;;
6825;SDS011;3451;52.476;13.316;2023-03-12T15:50:26;4.17;;;2.53;;
6825;SDS011;3451;52.476;13.316;2023-03-12T15:52:58;8.97;;;2.37;;
6825;SDS011;3451;52.476;13.316;2023-03-12T15:55:27;4.50;;;2.30;;
6825;SDS011;3451;52.476;13.316;2023-03-12T15:57:54;3.30;;;1.90;;
6825;SDS011;3451;52.476;13.316;2023-03-12T16:00:25;4.60;;;2.13;;
6825;SDS011;3451;52.476;13.316;2023-03-12T16:02:56;6.10;;;2.40;;
6825;SDS011;3451;52.476;13.316;2023-03-12T16:05:29;4.77;;;2.57;;
6825;SDS011;3451;52.476;13.316;2023-03-12T16:07:56;4.47;;;2.40;;
6825;SDS011;3451;52.476;13.316;2023-03-12T16:10:25;5.57;;;2.43;;
6825;SDS011;3451;52.476;13.316;2023-03-12T16:12:57;4.90;;;2.77;;